Time;durP1;ratioP1;P1;durP2;ratioP2;P2;SDS_P1;SDS_P2;PMS_P1;PMS_P2;Temp;Humidity;BMP_temperature;BMP_pressure;BME280_temperature;BME280_humidity;BME280_pressure;Samples;Min_cycle;Max_cycle;Signal;HPM_P1;HPM_P2
2023/12/05 00:03:51;;;;;;;19.97;14.53;;;;;;;1.53;94.46;97898.09;7271141;40;20261;31
2023/12/05 00:09:27;;;;;;;21.40;14.20;;;;;;;1.56;94.98;97891.66;7170761;40;20865;31
2023/12/05 00:14:48;;;;;;;21.60;14.60;;;;;;;1.61;94.86;97892.06;7184525;40;21420;31
2023/12/05 00:20:24;;;;;;;19.33;13.67;;;;;;;1.61;94.56;97876.16;7240099;40;20327;31
2023/12/05 00:26:01;;;;;;;19.33;13.97;;;;;;;1.62;94.67;97881.31;7203771;40;20689;31
2023/12/05 00:31:21;;;;;;;17.20;13.40;;;;;;;1.64;96.14;97881.16;7200443;40;20270;31
2023/12/05 00:36:52;;;;;;;20.65;13.65;;;;;;;1.65;96.02;97891.66;7218045;40;20239;31
2023/12/05 00:42:28;;;;;;;20.80;13.65;;;;;;;1.63;94.98;97882.97;7217157;40;20820;31
2023/12/05 00:48:03;;;;;;;19.43;13.63;;;;;;;1.67;95.02;97891.47;7200543;40;21299;31
2023/12/05 00:53:38;;;;;;;18.07;12.60;;;;;;;1.71;95.78;97884.94;7229350;40;20725;31
2023/12/05 00:59:15;;;;;;;19.90;13.55;;;;;;;1.78;96.35;97891.34;7189152;40;21332;31
2023/12/05 01:09:39;;;;;;;17.35;12.55;;;;;;;1.88;95.41;97901.94;7223473;40;20268;31
2023/12/05 01:20:22;;;;;;;17.23;12.93;;;;;;;1.86;96.36;97907.38;7307822;39;20241;31
2023/12/05 01:25:57;;;;;;;17.57;12.03;;;;;;;1.93;97.13;97902.34;7340556;39;20772;31
2023/12/05 01:31:15;;;;;;;14.75;11.35;;;;;;;2.00;96.10;97896.31;7268972;40;20245;31
2023/12/05 01:37:04;;;;;;;15.73;10.93;;;;;;;2.05;98.27;97898.53;7262105;40;20235;31
2023/12/05 01:42:36;;;;;;;14.13;10.47;;;;;;;2.17;97.74;97895.53;7228035;40;20858;31
2023/12/05 01:53:14;;;;;;;12.95;9.90;;;;;;;2.19;98.25;97890.88;7210870;40;20258;31
2023/12/05 01:58:49;;;;;;;13.20;8.90;;;;;;;2.26;97.99;97901.78;7220374;40;20918;31
2023/12/05 02:04:25;;;;;;;9.55;7.90;;;;;;;2.34;99.60;97901.88;7266282;40;21293;31
2023/12/05 02:10:03;;;;;;;13.83;9.20;;;;;;;2.43;99.01;97881.56;7210892;40;20847;31
2023/12/05 02:15:37;;;;;;;12.93;9.37;;;;;;;2.40;99.38;97880.03;7209077;40;20904;31
2023/12/05 02:26:23;;;;;;;10.93;8.80;;;;;;;2.43;99.04;97871.75;7199584;40;20286;31
2023/12/05 02:31:59;;;;;;;11.53;8.30;;;;;;;2.48;99.87;97874.81;7186653;40;20339;31
2023/12/05 02:37:35;;;;;;;9.90;7.35;;;;;;;2.51;98.95;97873.66;7200142;40;20242;31
2023/12/05 02:43:11;;;;;;;10.40;7.25;;;;;;;2.60;99.57;97880.75;7213399;40;20231;31
2023/12/05 02:48:47;;;;;;;9.00;6.70;;;;;;;2.63;98.64;97883.94;7243756;40;22048;31
2023/12/05 02:54:23;;;;;;;8.45;6.40;;;;;;;2.68;100.00;97880.84;7278111;39;20299;31
2023/12/05 02:59:44;;;;;;;8.45;6.40;;;;;;;2.80;100.00;97884.13;7238053;40;20317;31
2023/12/05 03:05:20;;;;;;;9.57;6.23;;;;;;;2.82;100.00;97876.81;7204710;40;20329;31
2023/12/05 03:10:41;;;;;;;7.20;5.30;;;;;;;2.92;100.00;97875.78;7193609;40;20282;31
2023/12/05 03:16:01;;;;;;;7.70;5.70;;;;;;;2.94;100.00;97878.31;7169574;40;20231;31
2023/12/05 03:21:33;;;;;;;6.90;5.60;;;;;;;2.94;99.81;97865.00;7264673;40;20686;31
2023/12/05 03:27:09;;;;;;;7.70;5.40;;;;;;;2.95;100.00;97862.16;7232612;40;20264;31
2023/12/05 03:32:41;;;;;;;8.63;5.13;;;;;;;3.00;100.00;97867.87;7255852;40;20674;31
2023/12/05 03:38:16;;;;;;;6.55;5.25;;;;;;;2.98;100.00;97858.38;7277720;40;20241;31
2023/12/05 03:43:35;;;;;;;7.05;5.40;;;;;;;3.02;100.00;97875.72;7233761;40;20238;31
2023/12/05 03:48:55;;;;;;;9.30;5.70;;;;;;;3.05;99.97;97894.03;7209798;40;20242;31
2023/12/05 03:54:31;;;;;;;8.63;5.60;;;;;;;3.06;100.00;97891.22;7173586;40;20314;31
2023/12/05 04:00:06;;;;;;;8.70;6.10;;;;;;;3.02;99.68;97897.84;7186700;40;20268;31
2023/12/05 04:05:26;;;;;;;8.73;5.70;;;;;;;3.04;100.00;97900.34;7179963;40;20243;31
2023/12/05 04:11:02;;;;;;;7.95;5.35;;;;;;;3.08;100.00;97888.41;7180644;40;20276;31
2023/12/05 04:16:38;;;;;;;6.85;5.30;;;;;;;3.13;100.00;97902.94;7180837;40;20243;31
2023/12/05 04:21:59;;;;;;;6.50;5.20;;;;;;;3.12;100.00;97901.25;7253533;39;20374;31
2023/12/05 04:27:35;;;;;;;9.35;5.80;;;;;;;3.10;100.00;97903.25;7257181;40;20304;31
2023/12/05 04:33:11;;;;;;;8.70;5.97;;;;;;;3.17;100.00;97909.62;7226807;40;20484;31
2023/12/05 04:38:28;;;;;;;10.27;6.23;;;;;;;3.18;100.00;97908.62;7042951;40;21892;31
2023/12/05 04:44:04;;;;;;;9.20;6.63;;;;;;;3.14;100.00;97906.44;7206871;40;20250;31
2023/12/05 04:49:40;;;;;;;9.17;6.27;;;;;;;3.16;100.00;97923.06;7225345;40;20775;31
2023/12/05 04:55:15;;;;;;;9.53;5.97;;;;;;;3.16;100.00;97918.59;7218185;40;20746;31
2023/12/05 05:00:51;;;;;;;8.30;5.80;;;;;;;3.23;100.00;97920.66;7173570;40;20702;31
2023/12/05 05:06:24;;;;;;;9.90;6.15;;;;;;;3.26;100.00;97923.84;7257832;40;20694;31
2023/12/05 05:11:44;;;;;;;11.03;6.40;;;;;;;3.29;100.00;97926.19;7212938;40;20855;31
2023/12/05 05:17:21;;;;;;;10.60;6.55;;;;;;;3.26;100.00;97920.34;7201858;40;20242;31
2023/12/05 05:22:42;;;;;;;9.45;6.50;;;;;;;3.33;100.00;97922.28;7230258;40;20245;31
2023/12/05 05:28:03;;;;;;;10.95;6.50;;;;;;;3.36;100.00;97929.94;7237368;40;20394;31
2023/12/05 05:33:37;;;;;;;10.20;5.95;;;;;;;3.34;100.00;97926.56;7259105;40;20245;31
2023/12/05 05:39:12;;;;;;;7.17;5.33;;;;;;;3.36;100.00;97921.94;7217939;40;20875;31
2023/12/05 05:44:47;;;;;;;17.10;13.60;;;;;;;3.40;100.00;97936.63;7241514;40;20329;31
2023/12/05 05:55:24;;;;;;;6.57;4.45;;;;;;;3.44;100.00;97931.84;7214181;40;20261;31
2023/12/05 06:06:03;;;;;;;9.80;4.80;;;;;;;3.52;100.00;97948.72;7222003;40;20270;31
2023/12/05 06:16:44;;;;;;;10.13;5.73;;;;;;;3.52;100.00;97959.37;7271859;39;20269;31
2023/12/05 06:27:09;;;;;;;5.80;4.35;;;;;;;3.60;100.00;97956.78;7308954;39;20373;31
2023/12/05 06:32:46;;;;;;;5.73;4.43;;;;;;;3.69;100.00;97975.50;7334235;39;20364;31
2023/12/05 06:38:06;;;;;;;6.50;3.63;;;;;;;3.78;100.00;97967.41;7253995;40;20242;31
2023/12/05 06:43:38;;;;;;;5.80;3.40;;;;;;;3.87;100.00;97970.97;7298434;40;20244;31
2023/12/05 06:49:11;;;;;;;4.45;3.00;;;;;;;3.87;100.00;97970.97;7258812;40;20694;31
2023/12/05 06:54:31;;;;;;;5.55;3.30;;;;;;;3.94;100.00;97977.38;7258396;40;20819;31
2023/12/05 06:59:47;;;;;;;6.50;3.10;;;;;;;3.97;100.00;97985.06;7272064;40;20874;31
2023/12/05 07:05:22;;;;;;;5.84;3.78;;;;;;;4.01;100.00;97986.41;7277376;40;20310;31
2023/12/05 07:10:54;;;;;;;5.60;3.20;;;;;;;4.02;100.00;97998.75;7279879;39;20712;31
2023/12/05 07:16:26;;;;;;;5.90;3.30;;;;;;;4.07;100.00;98002.66;7278972;40;20735;31
2023/12/05 07:22:02;;;;;;;4.10;3.00;;;;;;;4.05;100.00;97993.94;7265911;40;20813;31
2023/12/05 07:27:22;;;;;;;11.43;6.43;;;;;;;4.10;100.00;98001.47;7216300;40;20781;31
2023/12/05 07:32:41;;;;;;;4.90;3.30;;;;;;;4.14;100.00;98008.19;7242439;40;20263;31
2023/12/05 07:38:17;;;;;;;4.60;2.65;;;;;;;4.24;100.00;98014.25;7238707;40;20244;31
2023/12/05 07:43:52;;;;;;;3.83;2.40;;;;;;;4.42;100.00;98007.03;7247504;40;20800;31
2023/12/05 07:49:23;;;;;;;3.20;2.30;;;;;;;4.50;100.00;98020.44;7159885;40;20258;31
2023/12/05 08:00:04;;;;;;;9.40;5.70;;;;;;;4.42;100.00;98025.72;7225459;40;20279;31
2023/12/05 08:05:22;;;;;;;5.90;3.77;;;;;;;4.39;100.00;98023.34;7221915;40;20837;31
2023/12/05 08:10:39;;;;;;;5.10;3.00;;;;;;;4.40;100.00;98022.34;7257350;40;20858;31
2023/12/05 08:16:16;;;;;;;4.47;2.80;;;;;;;4.44;100.00;98029.06;7277082;40;20669;31
2023/12/05 08:21:52;;;;;;;7.00;3.70;;;;;;;4.48;100.00;98024.22;7282040;39;20288;31
2023/12/05 08:27:13;;;;;;;6.85;3.70;;;;;;;4.54;100.00;98035.13;7258104;40;20755;31
2023/12/05 08:37:53;;;;;;;8.00;3.60;;;;;;;4.62;100.00;98033.50;7270055;40;20335;31
2023/12/05 08:43:14;;;;;;;6.35;2.95;;;;;;;4.72;100.00;98042.22;7243227;40;20247;31
2023/12/05 08:48:46;;;;;;;5.66;3.52;;;;;;;4.72;100.00;98052.91;7273680;39;20457;31
2023/12/05 08:54:20;;;;;;;3.25;2.30;;;;;;;4.69;100.00;98063.91;7294716;39;20237;31
2023/12/05 08:59:41;;;;;;;4.90;2.83;;;;;;;4.67;100.00;98077.41;7230840;40;20689;31
2023/12/05 09:05:14;;;;;;;5.13;2.73;;;;;;;4.65;100.00;98071.38;7198364;40;20269;31
2023/12/05 09:11:04;;;;;;;6.75;2.55;;;;;;;4.69;100.00;98082.59;7259640;40;20257;31
2023/12/05 09:21:28;;;;;;;7.25;3.40;;;;;;;4.77;100.00;98095.97;7252328;40;20268;31
2023/12/05 09:32:08;;;;;;;7.70;3.45;;;;;;;4.76;100.00;98094.28;7292460;39;20272;31
2023/12/05 09:37:29;;;;;;;8.20;3.30;;;;;;;4.81;100.00;98100.84;7328103;39;20388;31
2023/12/05 09:48:05;;;;;;;5.47;3.10;;;;;;;4.83;100.00;98100.66;7300044;40;20242;31
2023/12/05 09:53:40;;;;;;;4.45;2.40;;;;;;;4.84;100.00;98102.34;7266772;40;20773;31
2023/12/05 10:04:34;;;;;;;4.95;2.75;;;;;;;4.89;100.00;98108.06;7295189;39;20252;31
2023/12/05 10:15:13;;;;;;;6.90;3.23;;;;;;;4.98;100.00;98107.94;7247412;40;20269;31
2023/12/05 10:20:47;;;;;;;4.70;2.15;;;;;;;5.03;100.00;98103.97;7238016;40;20361;31
2023/12/05 10:26:19;;;;;;;2.80;2.00;;;;;;;5.08;100.00;98096.31;7212630;40;20722;31
2023/12/05 10:31:54;;;;;;;6.47;2.50;;;;;;;5.10;100.00;98091.62;7200589;40;20750;31
2023/12/05 10:37:29;;;;;;;4.10;2.47;;;;;;;5.21;100.00;98092.22;7208927;40;20242;31
2023/12/05 10:43:05;;;;;;;5.10;2.50;;;;;;;5.33;100.00;98080.25;7198302;40;20266;31
2023/12/05 10:48:41;;;;;;;3.57;2.27;;;;;;;5.46;100.00;98087.78;7203554;40;20331;31
2023/12/05 10:54:15;;;;;;;17.80;2.47;;;;;;;5.52;99.97;98078.31;7216109;40;20281;31
2023/12/05 11:04:54;;;;;;;3.07;2.00;;;;;;;5.60;100.00;98070.31;7233575;40;20281;31
2023/12/05 11:10:31;;;;;;;2.85;1.80;;;;;;;5.54;100.00;98081.63;7285058;40;20771;31
2023/12/05 11:16:08;;;;;;;4.07;2.30;;;;;;;5.50;100.00;98072.28;7271383;40;20238;31
2023/12/05 11:21:45;;;;;;;3.33;2.07;;;;;;;5.51;100.00;98065.94;7277996;40;20872;31
2023/12/05 11:27:21;;;;;;;3.70;2.15;;;;;;;5.50;100.00;98061.59;7216893;40;20704;31
2023/12/05 11:32:56;;;;;;;4.45;2.30;;;;;;;5.52;100.00;98065.78;7175675;40;20703;31
2023/12/05 11:38:32;;;;;;;3.47;2.80;;;;;;;5.54;100.00;98071.78;7227641;40;20750;31
2023/12/05 11:44:35;;;;;;;2.12;1.50;;;;;;;5.61;100.00;98067.47;7021225;40;20273;31
2023/12/05 11:50:10;;;;;;;6.75;3.95;;;;;;;5.64;99.69;98064.47;7220772;40;20242;31
2023/12/05 11:55:47;;;;;;;3.22;2.00;;;;;;;5.65;100.00;98068.81;7221246;40;21549;31
2023/12/05 12:01:23;;;;;;;2.15;1.65;;;;;;;5.69;99.10;98075.50;7198673;40;20720;31
2023/12/05 12:06:55;;;;;;;5.70;3.60;;;;;;;5.70;99.23;98082.53;7184651;40;20849;31
2023/12/05 12:12:30;;;;;;;1.90;1.23;;;;;;;5.76;98.84;98076.53;7257119;40;20391;31
2023/12/05 12:18:04;;;;;;;1.63;1.20;;;;;;;5.72;99.22;98071.66;7248636;40;20418;31
2023/12/05 12:23:40;;;;;;;2.00;1.10;;;;;;;5.76;98.53;98075.69;7215087;40;21354;31
2023/12/05 12:29:19;;;;;;;3.30;1.25;;;;;;;5.68;98.55;98068.47;7188873;40;20700;31
2023/12/05 12:34:53;;;;;;;4.25;1.55;;;;;;;5.69;98.88;98074.66;7170574;40;20378;31
2023/12/05 12:40:26;;;;;;;3.37;2.00;;;;;;;5.66;98.63;98075.00;7156076;40;20258;31
2023/12/05 12:45:45;;;;;;;2.77;1.47;;;;;;;5.63;99.47;98084.16;7128270;40;20244;31
2023/12/05 12:51:22;;;;;;;2.20;1.37;;;;;;;5.63;98.57;98083.34;7183334;40;20258;31
2023/12/05 12:56:55;;;;;;;2.10;1.10;;;;;;;5.58;98.11;98083.81;7241342;40;20241;31
2023/12/05 13:02:26;;;;;;;1.17;1.00;;;;;;;5.56;98.58;98085.00;7216645;40;20313;31
2023/12/05 13:07:59;;;;;;;2.00;1.40;;;;;;;5.58;98.31;98088.31;7249066;40;20789;31
2023/12/05 13:13:35;;;;;;;2.10;1.55;;;;;;;5.61;99.15;98104.91;7258150;39;20243;31
2023/12/05 13:18:56;;;;;;;3.45;2.20;;;;;;;5.64;98.87;98106.41;7227676;40;20254;31
2023/12/05 13:24:32;;;;;;;2.57;1.37;;;;;;;5.66;98.16;98091.03;7244876;40;20894;31
2023/12/05 13:30:08;;;;;;;2.10;1.30;;;;;;;5.70;98.32;98097.75;7247415;40;20241;31
2023/12/05 13:35:29;;;;;;;4.70;2.70;;;;;;;5.70;97.28;98095.06;7228934;40;20231;31
2023/12/05 13:41:05;;;;;;;62.00;27.67;;;;;;;5.67;97.83;98101.56;7214620;40;20246;31
2023/12/05 13:46:41;;;;;;;2.95;1.60;;;;;;;5.70;96.61;98111.09;7247155;40;20262;31
2023/12/05 13:52:02;;;;;;;1.80;1.47;;;;;;;5.69;96.77;98112.09;7222674;40;20878;31
2023/12/05 13:57:37;;;;;;;2.03;1.60;;;;;;;5.64;97.13;98114.41;7217055;40;20708;31
2023/12/05 14:02:58;;;;;;;3.25;1.70;;;;;;;5.64;97.21;98122.44;7155626;40;20321;31
2023/12/05 14:08:33;;;;;;;3.45;2.35;;;;;;;5.58;97.38;98126.56;7170934;40;20766;31
2023/12/05 14:14:14;;;;;;;1.90;1.40;;;;;;;5.55;96.46;98142.94;7182633;40;20369;31
2023/12/05 14:19:47;;;;;;;1.65;1.55;;;;;;;5.53;96.96;98146.78;7234285;40;20849;31
2023/12/05 14:25:09;;;;;;;1.40;1.00;;;;;;;5.50;97.34;98149.75;7238023;40;21520;31
2023/12/05 14:30:44;;;;;;;1.00;0.90;;;;;;;5.40;96.52;98150.72;7205953;40;21074;31
2023/12/05 14:41:09;;;;;;;2.60;1.70;;;;;;;5.31;97.02;98170.38;7237094;40;20355;31
2023/12/05 14:51:50;;;;;;;1.20;0.93;;;;;;;5.17;96.50;98184.34;7304861;39;20279;31
2023/12/05 14:57:26;;;;;;;1.43;1.23;;;;;;;5.15;97.20;98194.34;7275595;40;20276;31
2023/12/05 15:08:05;;;;;;;0.90;0.85;;;;;;;5.04;96.60;98191.94;7256905;40;20267;31
2023/12/05 15:18:45;;;;;;;5.23;2.67;;;;;;;4.97;97.20;98190.88;7278836;39;20254;31
2023/12/05 15:29:25;;;;;;;4.88;2.60;;;;;;;4.96;98.52;98205.19;7264445;39;20273;31
2023/12/05 15:39:47;;;;;;;4.70;2.30;;;;;;;4.97;98.23;98214.91;7191307;40;20261;31
2023/12/05 15:45:24;;;;;;;5.35;2.80;;;;;;;4.90;98.67;98217.37;7258326;40;20298;31
2023/12/05 15:50:42;;;;;;;2.53;2.00;;;;;;;4.94;98.04;98217.87;7244281;40;21248;31
2023/12/05 16:01:17;;;;;;;6.10;2.50;;;;;;;4.85;97.86;98230.34;7268773;40;20287;31
2023/12/05 16:11:40;;;;;;;3.10;2.00;;;;;;;4.83;97.20;98228.78;7292048;39;20261;31
2023/12/05 16:22:18;;;;;;;4.15;3.05;;;;;;;4.70;96.93;98225.69;7277988;39;20241;31
2023/12/05 16:27:40;;;;;;;3.17;2.13;;;;;;;4.68;96.80;98233.03;7302842;40;20776;31
2023/12/05 16:38:21;;;;;;;2.80;1.95;;;;;;;4.60;96.82;98246.28;7278571;40;20330;31
2023/12/05 16:43:42;;;;;;;2.73;2.20;;;;;;;4.62;97.34;98254.97;7264533;40;20431;31
2023/12/05 16:49:17;;;;;;;2.50;2.00;;;;;;;4.59;97.28;98245.47;7326243;39;20239;31
2023/12/05 16:54:51;;;;;;;2.55;2.00;;;;;;;4.52;97.59;98245.22;7277506;40;20663;31
2023/12/05 17:00:23;;;;;;;2.70;2.23;;;;;;;4.52;97.90;98253.22;7185440;40;20406;31
2023/12/05 17:11:03;;;;;;;1.83;1.33;;;;;;;4.54;98.28;98264.59;7213045;40;20281;31
2023/12/05 17:16:24;;;;;;;3.90;3.10;;;;;;;4.54;97.78;98266.41;7187769;40;20792;31
2023/12/05 17:21:45;;;;;;;40.70;24.00;;;;;;;4.51;97.48;98259.56;7239025;40;20707;31
2023/12/05 17:27:22;;;;;;;41.60;26.73;;;;;;;4.49;97.35;98263.34;7239819;40;20685;31
2023/12/05 17:32:57;;;;;;;17.85;10.20;;;;;;;4.53;98.00;98270.06;7248862;40;20691;31
2023/12/05 17:38:17;;;;;;;13.70;9.90;;;;;;;4.47;97.97;98263.53;7247664;40;20850;31
2023/12/05 17:43:51;;;;;;;5.20;4.30;;;;;;;4.44;97.82;98269.16;7181547;40;21437;31
2023/12/05 17:49:12;;;;;;;17.50;9.50;;;;;;;4.47;97.29;98274.19;7149451;40;20865;31
2023/12/05 17:54:47;;;;;;;3.87;3.10;;;;;;;4.40;97.76;98282.94;7216472;39;20722;31
2023/12/05 18:05:27;;;;;;;9.37;5.03;;;;;;;4.36;98.05;98281.56;7248811;40;20534;31
2023/12/05 18:10:47;;;;;;;7.00;4.23;;;;;;;4.36;97.80;98290.41;7180727;40;21296;31
2023/12/05 18:16:08;;;;;;;3.67;2.90;;;;;;;4.39;97.60;98290.09;7216386;40;20800;31
2023/12/05 18:21:41;;;;;;;3.90;2.70;;;;;;;4.35;98.00;98288.72;7265500;39;20262;31
2023/12/05 18:27:01;;;;;;;1.50;1.27;;;;;;;4.38;97.15;98293.78;7265123;40;20717;31
2023/12/05 18:37:42;;;;;;;3.30;1.73;;;;;;;4.35;97.86;98296.72;7234852;40;20367;31
2023/12/05 18:42:59;;;;;;;2.43;1.30;;;;;;;4.37;97.87;98291.25;7027096;40;21260;31
2023/12/05 18:48:20;;;;;;;1.63;1.10;;;;;;;4.38;97.15;98307.09;7243257;40;20246;31
2023/12/05 18:53:57;;;;;;;2.20;1.30;;;;;;;4.35;97.88;98312.72;7219535;40;20348;31
2023/12/05 18:59:32;;;;;;;2.50;2.30;;;;;;;4.36;97.95;98326.91;7226584;40;20764;31
2023/12/05 19:04:52;;;;;;;2.43;1.30;;;;;;;4.35;98.25;98333.22;7265759;39;20864;31
2023/12/05 19:10:27;;;;;;;2.20;1.50;;;;;;;4.32;97.62;98331.69;7270540;39;20265;31
2023/12/05 19:15:48;;;;;;;1.67;1.30;;;;;;;4.37;97.51;98349.94;7195610;40;20954;31
2023/12/05 19:21:09;;;;;;;1.10;1.00;;;;;;;4.33;97.93;98330.72;7193973;40;20270;31
2023/12/05 19:26:43;;;;;;;1.20;1.00;;;;;;;4.30;97.47;98332.84;7216097;40;20857;31
2023/12/05 19:32:18;;;;;;;1.35;1.10;;;;;;;4.29;97.33;98340.00;7267226;40;20888;31
2023/12/05 19:42:58;;;;;;;6.03;3.97;;;;;;;4.26;98.30;98344.78;7267225;40;20285;31
2023/12/05 19:53:38;;;;;;;1.55;1.20;;;;;;;4.21;97.93;98345.25;7293867;39;20278;31
2023/12/05 20:04:16;;;;;;;1.20;1.03;;;;;;;4.26;97.82;98355.44;7248031;40;20649;31
2023/12/05 20:09:37;;;;;;;1.65;1.30;;;;;;;4.28;98.75;98358.81;7276623;39;20734;31
2023/12/05 20:14:56;;;;;;;1.00;0.90;;;;;;;4.31;98.44;98358.50;7257528;39;20493;31
2023/12/05 20:25:37;;;;;;;3.95;2.60;;;;;;;4.31;98.56;98350.50;7286007;39;20273;31
2023/12/05 20:36:01;;;;;;;2.60;2.10;;;;;;;4.36;99.72;98357.09;7274550;39;20798;31
2023/12/05 20:41:38;;;;;;;1.40;1.10;;;;;;;4.42;100.00;98361.84;7257862;39;20269;31
2023/12/05 20:52:17;;;;;;;1.33;1.23;;;;;;;4.52;100.00;98364.44;7257734;40;20485;31
2023/12/05 21:02:58;;;;;;;1.57;1.43;;;;;;;4.64;100.00;98370.41;7249358;40;20242;31
2023/12/05 21:08:33;;;;;;;3.70;1.50;;;;;;;4.69;100.00;98369.00;7276146;40;20797;31
2023/12/05 21:14:08;;;;;;;1.43;1.33;;;;;;;4.69;100.00;98373.50;7256556;40;20262;31
2023/12/05 21:19:44;;;;;;;1.17;1.07;;;;;;;4.75;100.00;98372.88;7197777;40;20719;31
2023/12/05 21:25:17;;;;;;;2.37;2.10;;;;;;;4.78;100.00;98385.94;7166027;40;20707;31
2023/12/05 21:30:38;;;;;;;1.85;1.30;;;;;;;4.85;100.00;98384.34;7163916;40;20270;31
2023/12/05 21:36:13;;;;;;;4.07;3.53;;;;;;;4.87;100.00;98395.72;7224132;40;20323;31
2023/12/05 21:41:34;;;;;;;3.35;2.10;;;;;;;4.90;100.00;98392.72;7232259;40;20253;31
2023/12/05 21:46:54;;;;;;;5.80;4.20;;;;;;;4.92;100.00;98404.94;7243301;40;20368;31
2023/12/05 21:52:31;;;;;;;3.25;2.25;;;;;;;4.85;100.00;98403.03;7252627;40;20241;31
2023/12/05 21:58:04;;;;;;;3.20;2.90;;;;;;;4.79;100.00;98404.44;7235834;40;20708;31
2023/12/05 22:03:38;;;;;;;3.55;2.65;;;;;;;4.74;100.00;98416.59;7261876;40;20871;31
2023/12/05 22:09:17;;;;;;;4.57;3.23;;;;;;;4.68;100.00;98420.69;7221936;40;20400;31
2023/12/05 22:14:37;;;;;;;3.95;3.17;;;;;;;4.68;100.00;98430.50;7169434;40;20247;31
2023/12/05 22:20:16;;;;;;;3.30;3.00;;;;;;;4.72;100.00;98439.91;7212595;40;20325;31
2023/12/05 22:25:53;;;;;;;3.00;2.70;;;;;;;4.67;100.00;98452.84;7186972;40;20826;31
2023/12/05 22:36:34;;;;;;;3.63;3.23;;;;;;;4.64;100.00;98461.16;7274382;40;20407;31
2023/12/05 22:47:14;;;;;;;7.40;5.45;;;;;;;4.67;100.00;98461.69;7234425;40;20421;31
2023/12/05 22:57:39;;;;;;;9.93;8.90;;;;;;;4.76;100.00;98478.66;7275626;40;20313;31
2023/12/05 23:03:12;;;;;;;4.55;4.15;;;;;;;4.74;100.00;98483.31;7277100;39;20249;31
2023/12/05 23:08:47;;;;;;;4.40;4.00;;;;;;;4.71;100.00;98488.94;7275071;39;20714;31
2023/12/05 23:14:08;;;;;;;4.00;3.60;;;;;;;4.74;100.00;98488.66;7236627;40;20771;31
2023/12/05 23:19:42;;;;;;;3.80;3.26;;;;;;;4.72;100.00;98479.94;7232871;40;21314;31
2023/12/05 23:25:02;;;;;;;2.70;2.50;;;;;;;4.76;100.00;98487.50;7193744;40;20729;31
2023/12/05 23:30:20;;;;;;;3.30;2.77;;;;;;;4.81;100.00;98493.25;7202086;40;20233;31
2023/12/05 23:35:53;;;;;;;3.43;2.60;;;;;;;4.83;100.00;98477.91;7233488;40;20298;31
2023/12/05 23:41:11;;;;;;;3.83;3.27;;;;;;;4.86;100.00;98485.63;7183997;40;20704;31
2023/12/05 23:46:32;;;;;;;2.60;2.10;;;;;;;4.89;100.00;98488.00;7200183;40;20245;31
2023/12/05 23:52:12;;;;;;;2.30;1.90;;;;;;;4.89;100.00;98473.81;7249853;40;21450;31
2023/12/05 23:57:33;;;;;;;2.47;2.03;;;;;;;4.96;100.00;98482.91;7211511;40;20755;31
